Portada
METAR-TAF:

METAR-TAF

Aeroports :

Nova Delhi, Índia

latitud: 28-34N, longitud: 077-07E, altitud: 220 m

Observació

L'informe es va fer fa 25 minuts, a les 10:30 UTC
Vent 8 kt del Oest/Nord-Oest amb ràfegues de 18 kt
Temperatura 38°C
Humitat 21%
Pressió 1005 hPa
Visibilitat: 4000 m
Escasses núvols a una alçada de 10000 ft
calitja

METAR: VIDP 221030Z 29008G18KT 4000 HZ FEW100 38/12 Q1005 NOSIG

Hora: 16:25 (10:55 UTC)

Pronòstic

L'informe es va fer fa 2 hores i 55 minuts, a les 08:00 UTC
Pronòstic vàlid del 22 a les 09 UTC al 22 a les 18 UTC
Vent 8 kt del Nord-Oest
Visibilitat: 4000 m
Escasses núvols a una alçada de 4000 ft
Núvols disperses a una alçada de 10000 ft
calitja
Evolucionant progressivament
l' 22 a les 15 UTC al 22 a les 17 UTC
Vent 6 kt del Oest/Nord-Oest
Visibilitat: 3000 m
Escasses núvols a una alçada de 10000 ft
calitja

TAF: VIDP 220800Z 2209/2218 32008KT 4000 HZ FEW040 SCT100 BECMG 2215/2217 29006KT 3000 HZ FEW100

Observacions i pronòstics meteorològics de més de 4000 aeroports (METAR i TAF).

Les estacions disponibles són els punts grocs i vermells al mapa.

Posi el ratolí al punt desitjat per veure el nom de l'estació.

Feu clic per veure les observacions i els pronòstics meteorològics.

Per canviar el mapa: feu clic els botons verds amb una creu de color negre per apropar; al botó verd amb un guió per allunyar la imatge; o en les fletxes verdes per a mapes adjacents.


METAR-TAF: